Weather at Base ULM Vol d'oiseau

Public forecast

Using degrees Celsius for public forecast. Weather courtesy of forecast.io.

Closest aviation weather report (METAR) to Base ULM Vol d'oiseau

Closest report is Cognac-Ch√Ęteaubernard (BA 709) Air Base, 28.9 nm (53.6 km) E. Retrieved 2021/10/25 14:30 UTC (2 hours ago):

LFBG 251430Z AUTO 22006KT 9999 SCT010/// BKN016/// BKN024/// ///CB 17/14 Q1021 TEMPO 4000 SHRA

Closest aviation forecast (TAF) to Base ULM Vol d'oiseau

Closest forecast is Cognac-Ch√Ęteaubernard (BA 709) Air Base, 28.9 nm (53.6 km) E. Retrieved 2021/10/25 15:00 UTC (1 hour ago):

TAF LFBG 251400Z 2515/2615 20005KT 9999 BKN015 PROB40 TEMPO 2515/2519 4000 SHRA BKN020TCU BECMG 2522/2524 0800 FG BECMG 2603/2605 3000 BR OVC003 BECMG 2609/2611 BKN016